createdAt,value
2019-05-02T00:02:04.612Z,100801.67
2019-05-02T00:04:42.011Z,100811.70
2019-05-02T00:07:20.130Z,100813.90
2019-05-02T00:09:58.997Z,100809.10
2019-05-02T00:12:38.309Z,100813.08
2019-05-02T00:15:16.550Z,100811.81
2019-05-02T00:17:56.880Z,100821.24
2019-05-02T00:20:34.786Z,100821.39
2019-05-02T00:23:12.260Z,100824.63
2019-05-02T00:25:52.566Z,100829.39
2019-05-02T00:28:29.798Z,100826.75
2019-05-02T00:31:11.575Z,100831.89
2019-05-02T00:33:46.985Z,100841.52
2019-05-02T00:36:24.478Z,100844.52
2019-05-02T00:39:02.192Z,100852.55
2019-05-02T00:41:41.140Z,100855.70
2019-05-02T00:44:18.625Z,100857.11
2019-05-02T00:46:58.587Z,100854.28
2019-05-02T00:49:36.679Z,100855.62
2019-05-02T00:52:16.237Z,100869.09
2019-05-02T00:54:54.997Z,100869.47
2019-05-02T00:57:32.803Z,100877.91
2019-05-02T01:00:13.325Z,100884.19
2019-05-02T01:02:58.370Z,100893.34
2019-05-02T01:05:38.513Z,100888.73
2019-05-02T01:08:14.789Z,100898.78
2019-05-02T01:10:56.774Z,100900.05
2019-05-02T01:13:32.333Z,100910.48
2019-05-02T01:16:09.942Z,100919.44
2019-05-02T01:18:47.696Z,100928.28
2019-05-02T01:21:24.882Z,100927.29
2019-05-02T01:24:04.407Z,100910.61
2019-05-02T01:26:47.313Z,100923.34
2019-05-02T01:29:31.763Z,100926.09
2019-05-02T01:32:25.283Z,100928.16
2019-05-02T01:35:10.900Z,100926.39
2019-05-02T01:38:16.075Z,100925.59
2019-05-02T01:40:54.842Z,100939.55
2019-05-02T01:43:32.672Z,100946.66
2019-05-02T01:46:11.091Z,100939.01
2019-05-02T01:48:48.519Z,100944.66
2019-05-02T01:51:25.897Z,100947.25
2019-05-02T01:54:05.169Z,100947.14
2019-05-02T01:56:44.135Z,100948.38
2019-05-02T01:59:21.469Z,100958.16
2019-05-02T02:01:59.168Z,100954.70
2019-05-02T02:04:37.271Z,100958.39
2019-05-02T02:07:19.958Z,100960.47
2019-05-02T02:09:54.889Z,100962.70
2019-05-02T02:12:32.317Z,100961.59
2019-05-02T02:15:10.110Z,100972.14
2019-05-02T02:17:51.467Z,100963.06
2019-05-02T02:20:30.676Z,100975.27
2019-05-02T02:23:38.971Z,100981.28
2019-05-02T02:26:17.589Z,100974.58
2019-05-02T02:28:55.728Z,100973.11
2019-05-02T02:31:39.917Z,100976.65
2019-05-02T02:34:12.647Z,100971.97
2019-05-02T02:36:50.239Z,100972.58
2019-05-02T02:39:27.905Z,100982.36
2019-05-02T02:42:06.654Z,100977.97
2019-05-02T02:44:51.776Z,100979.52
2019-05-02T02:47:29.914Z,100974.57
2019-05-02T02:50:08.076Z,100976.53
2019-05-02T02:52:47.153Z,100966.60
2019-05-02T02:55:24.854Z,100969.34
2019-05-02T02:58:04.808Z,100977.31
2019-05-02T03:00:47.577Z,100981.18
2019-05-02T03:03:28.034Z,100979.36
2019-05-02T03:06:05.477Z,100968.80
2019-05-02T03:08:46.671Z,100970.30
2019-05-02T03:11:25.374Z,100973.27
2019-05-02T03:14:24.957Z,100965.87
2019-05-02T03:17:02.746Z,100958.13
2019-05-02T03:19:40.181Z,100962.31
2019-05-02T03:22:18.279Z,100960.24
2019-05-02T03:24:56.226Z,100959.59
2019-05-02T03:27:37.120Z,100960.35
2019-05-02T03:30:29.927Z,100955.84
2019-05-02T03:33:06.015Z,100954.52
2019-05-02T03:35:43.765Z,100958.57
2019-05-02T03:38:16.943Z,100952.52
2019-05-02T03:40:54.559Z,100942.04
2019-05-02T03:43:33.147Z,100947.99
2019-05-02T03:46:13.507Z,100941.39
2019-05-02T03:48:51.203Z,100937.55
2019-05-02T03:51:29.702Z,100934.69
2019-05-02T03:54:10.370Z,100927.58
2019-05-02T03:56:51.248Z,100934.42
2019-05-02T03:59:37.570Z,100927.65
2019-05-02T04:02:14.018Z,100927.25
2019-05-02T04:04:54.050Z,100927.11
2019-05-02T04:07:27.049Z,100931.91
2019-05-02T04:10:06.748Z,100931.03
2019-05-02T04:12:43.646Z,100932.36
2019-05-02T04:15:21.405Z,100922.69
2019-05-02T04:17:58.740Z,100921.30
2019-05-02T04:20:36.783Z,100908.06
2019-05-02T04:23:21.440Z,100912.56
2019-05-02T04:25:56.157Z,100903.53
2019-05-02T04:28:35.627Z,100905.76
2019-05-02T04:31:13.037Z,100898.80
2019-05-02T04:33:52.137Z,100897.92
2019-05-02T04:36:30.269Z,100892.44
2019-05-02T04:39:15.038Z,100884.77
2019-05-02T04:41:48.815Z,100884.48
2019-05-02T04:44:32.219Z,100874.73
2019-05-02T04:47:11.160Z,100867.75
2019-05-02T04:49:44.543Z,100859.64
2019-05-02T04:52:21.820Z,100854.23
2019-05-02T04:55:08.155Z,100850.08
2019-05-02T04:57:46.851Z,100838.58
2019-05-02T05:00:20.539Z,100837.11
2019-05-02T05:02:58.431Z,100833.05
2019-05-02T05:05:40.282Z,100827.28
2019-05-02T05:08:26.037Z,100825.02
2019-05-02T05:10:57.334Z,100820.25
2019-05-02T05:13:37.400Z,100811.07
2019-05-02T05:16:15.712Z,100799.72
2019-05-02T05:18:55.000Z,100790.77
2019-05-02T05:21:32.457Z,100785.01
2019-05-02T05:24:32.803Z,100786.72
2019-05-02T05:27:08.229Z,100785.38
2019-05-02T05:29:48.513Z,100777.78
2019-05-02T05:32:25.255Z,100776.80
2019-05-02T05:35:08.016Z,100775.25
2019-05-02T05:37:47.976Z,100772.75
2019-05-02T05:40:30.327Z,100772.75
2019-05-02T05:43:11.244Z,100771.26
2019-05-02T05:45:50.721Z,100768.67
2019-05-02T05:48:20.229Z,100755.67
2019-05-02T05:50:58.893Z,100752.67
2019-05-02T05:53:37.523Z,100742.36
2019-05-02T05:56:17.896Z,100742.36
2019-05-02T05:58:58.902Z,100740.38
2019-05-02T06:01:36.390Z,100731.48
2019-05-02T06:04:22.132Z,100732.20
2019-05-02T06:07:01.650Z,100721.59
2019-05-02T06:09:35.782Z,100717.24
2019-05-02T06:12:15.567Z,100705.10
2019-05-02T06:14:56.382Z,100701.42
2019-05-02T06:17:32.467Z,100705.72
2019-05-02T06:20:11.233Z,100697.80
2019-05-02T06:22:49.415Z,100697.05
2019-05-02T06:25:34.382Z,100699.88
2019-05-02T06:28:06.969Z,100695.05
2019-05-02T06:30:44.365Z,100686.17
2019-05-02T06:33:25.964Z,100693.12
2019-05-02T06:36:03.005Z,100689.78
2019-05-02T06:38:40.346Z,100683.08
2019-05-02T06:41:20.980Z,100671.39
2019-05-02T06:43:59.955Z,100668.80
2019-05-02T06:46:37.016Z,100659.80
2019-05-02T06:49:14.256Z,100660.95
2019-05-02T06:51:56.184Z,100655.37
2019-05-02T06:54:31.202Z,100652.63
2019-05-02T06:57:09.087Z,100643.85
2019-05-02T06:59:49.942Z,100634.52
2019-05-02T07:02:28.355Z,100632.77
2019-05-02T07:05:05.858Z,100622.32
2019-05-02T07:07:43.924Z,100613.02
2019-05-02T07:10:25.525Z,100614.62
2019-05-02T07:13:10.019Z,100614.61
2019-05-02T07:16:16.188Z,100611.41
2019-05-02T07:18:55.828Z,100608.27
2019-05-02T07:21:33.171Z,100598.01
2019-05-02T07:24:12.171Z,100595.66
2019-05-02T07:26:52.207Z,100581.92
2019-05-02T07:29:31.525Z,100579.53
2019-05-02T07:32:09.254Z,100573.79
2019-05-02T07:34:48.179Z,100569.17
2019-05-02T07:37:28.605Z,100561.92
2019-05-02T07:40:06.749Z,100551.31
2019-05-02T07:42:44.470Z,100551.10
2019-05-02T07:45:22.966Z,100544.77
2019-05-02T07:48:01.682Z,100537.37
2019-05-02T07:50:41.183Z,100530.53
2019-05-02T07:53:18.223Z,100523.72
2019-05-02T07:55:55.867Z,100516.23
2019-05-02T07:58:38.510Z,100509.55
2019-05-02T08:01:13.363Z,100509.06
2019-05-02T08:03:51.666Z,100501.82
2019-05-02T08:06:35.300Z,100497.56
2019-05-02T08:09:11.535Z,100497.89
2019-05-02T08:11:48.936Z,100485.74
2019-05-02T08:14:29.305Z,100485.28
2019-05-02T08:17:16.285Z,100476.69
2019-05-02T08:19:45.429Z,100465.23
2019-05-02T08:22:23.266Z,100463.56
2019-05-02T08:25:00.628Z,100457.19
2019-05-02T08:27:52.890Z,100461.41
2019-05-02T08:30:39.957Z,100443.91
2019-05-02T08:33:14.317Z,100435.92
2019-05-02T08:35:53.986Z,100431.70
2019-05-02T08:38:32.241Z,100424.49
2019-05-02T08:41:10.270Z,100424.49
2019-05-02T08:43:47.730Z,100412.97
2019-05-02T08:46:25.386Z,100413.40
2019-05-02T08:49:04.765Z,100413.40
2019-05-02T08:51:42.206Z,100419.27
2019-05-02T08:54:19.437Z,100418.77
2019-05-02T08:56:59.001Z,100417.19
2019-05-02T08:59:40.883Z,100402.05
2019-05-02T09:02:21.170Z,100402.05
2019-05-02T09:04:58.978Z,100425.19
2019-05-02T09:07:39.330Z,100424.55
2019-05-02T09:10:15.698Z,100426.45
2019-05-02T09:12:53.896Z,100418.50
2019-05-02T09:15:34.982Z,100416.39
2019-05-02T09:18:12.383Z,100422.20
2019-05-02T09:20:52.569Z,100420.64
2019-05-02T09:23:33.134Z,100423.99
2019-05-02T09:26:09.376Z,100422.25
2019-05-02T09:28:46.758Z,100425.95
2019-05-02T09:31:23.993Z,100423.05
2019-05-02T09:34:02.708Z,100423.37
2019-05-02T09:36:41.589Z,100428.30
2019-05-02T09:39:20.061Z,100421.70
2019-05-02T09:41:57.498Z,100412.27
2019-05-02T09:44:36.196Z,100420.35
2019-05-02T09:47:27.485Z,100419.72
2019-05-02T09:50:10.405Z,100425.41
2019-05-02T09:52:49.223Z,100421.17
2019-05-02T09:55:27.108Z,100419.74
2019-05-02T09:58:04.446Z,100417.88
2019-05-02T10:00:58.602Z,100419.02
2019-05-02T10:03:36.154Z,100414.89
2019-05-02T10:06:18.199Z,100415.27
2019-05-02T10:08:53.285Z,100420.36
2019-05-02T10:11:32.173Z,100422.55
2019-05-02T10:14:09.396Z,100426.64
2019-05-02T10:16:47.923Z,100418.62
2019-05-02T10:19:26.113Z,100416.69
2019-05-02T10:22:03.903Z,100415.70
2019-05-02T10:24:43.110Z,100416.63
2019-05-02T10:27:21.725Z,100421.31
2019-05-02T10:30:08.216Z,100418.41
2019-05-02T10:32:37.684Z,100417.63
2019-05-02T10:35:16.685Z,100423.19
2019-05-02T10:37:54.654Z,100419.61
2019-05-02T10:40:32.534Z,100419.02
2019-05-02T10:43:11.789Z,100410.98
2019-05-02T10:45:52.730Z,100416.06
2019-05-02T10:48:33.257Z,100419.47
2019-05-02T10:51:28.056Z,100425.57
2019-05-02T10:54:05.817Z,100438.23
2019-05-02T10:56:43.948Z,100429.12
2019-05-02T10:59:22.201Z,100425.64
2019-05-02T11:02:18.219Z,100425.94
2019-05-02T11:04:58.669Z,100427.28
2019-05-02T11:07:36.787Z,100406.41
2019-05-02T11:10:14.857Z,100406.41
2019-05-02T11:13:22.533Z,100431.84
2019-05-02T11:16:25.418Z,100435.55
2019-05-02T11:19:05.638Z,100439.59
2019-05-02T11:21:55.337Z,100446.87
2019-05-02T11:24:22.591Z,100446.00
2019-05-02T11:27:02.187Z,100438.25
2019-05-02T11:29:39.476Z,100440.81
2019-05-02T11:32:17.197Z,100441.48
2019-05-02T11:34:54.613Z,100449.48
2019-05-02T11:37:32.861Z,100444.45
2019-05-02T11:40:12.875Z,100444.98
2019-05-02T11:42:52.150Z,100445.08
2019-05-02T11:45:29.733Z,100445.48
2019-05-02T11:48:09.072Z,100448.56
2019-05-02T11:50:46.731Z,100452.49
2019-05-02T11:53:29.199Z,100453.61
2019-05-02T11:56:07.519Z,100454.66
2019-05-02T11:58:48.352Z,100462.75
2019-05-02T12:01:35.518Z,100459.45
2019-05-02T12:04:07.595Z,100472.02
2019-05-02T12:06:42.843Z,100481.17
2019-05-02T12:09:22.300Z,100478.04
2019-05-02T12:11:59.612Z,100477.49
2019-05-02T12:14:38.500Z,100479.12
2019-05-02T12:17:16.174Z,100478.52
2019-05-02T12:19:53.482Z,100485.85
2019-05-02T12:22:32.456Z,100481.16
2019-05-02T12:25:12.623Z,100490.58
2019-05-02T12:27:49.484Z,100485.33
2019-05-02T12:30:28.943Z,100491.92
2019-05-02T12:33:06.820Z,100497.19
2019-05-02T12:35:45.130Z,100501.55
2019-05-02T12:38:23.112Z,100497.20
2019-05-02T12:41:02.695Z,100500.63
2019-05-02T12:43:41.598Z,100508.18
2019-05-02T12:46:22.099Z,100517.81
2019-05-02T12:48:59.098Z,100530.25
2019-05-02T12:51:36.384Z,100543.78
2019-05-02T12:54:14.157Z,100549.13
2019-05-02T12:56:52.860Z,100556.88
2019-05-02T12:59:32.222Z,100554.05
2019-05-02T13:02:15.554Z,100559.59
2019-05-02T13:04:52.612Z,100566.06
2019-05-02T13:07:31.751Z,100565.11
2019-05-02T13:10:11.795Z,100573.27
2019-05-02T13:12:49.532Z,100580.34
2019-05-02T13:15:27.224Z,100585.05
2019-05-02T13:18:05.578Z,100593.27
2019-05-02T13:20:42.805Z,100592.16
2019-05-02T13:23:42.656Z,100602.48
2019-05-02T13:26:24.964Z,100607.23
2019-05-02T13:28:59.926Z,100608.85
2019-05-02T13:31:46.216Z,100616.59
2019-05-02T13:34:34.703Z,100618.55
2019-05-02T13:37:15.543Z,100614.52
2019-05-02T13:40:12.138Z,100625.39
2019-05-02T13:42:49.764Z,100635.38
2019-05-02T13:45:52.721Z,100642.22
2019-05-02T13:48:32.170Z,100639.93
2019-05-02T13:51:11.763Z,100640.66
2019-05-02T13:54:02.337Z,100653.77
2019-05-02T13:56:52.346Z,100657.09
2019-05-02T13:59:29.783Z,100653.22
2019-05-02T14:02:08.537Z,100649.37
2019-05-02T14:04:46.751Z,100655.05
2019-05-02T14:07:24.338Z,100657.89
2019-05-02T14:10:04.916Z,100657.41
2019-05-02T14:12:52.737Z,100662.44
2019-05-02T14:15:34.315Z,100666.08
2019-05-02T14:18:12.493Z,100684.52
2019-05-02T14:20:49.580Z,100684.19
2019-05-02T14:23:28.306Z,100693.19
2019-05-02T14:26:05.448Z,100707.27
2019-05-02T14:28:43.704Z,100718.00
2019-05-02T14:31:21.683Z,100717.27
2019-05-02T14:34:16.682Z,100722.99
2019-05-02T14:36:59.204Z,100731.83
2019-05-02T14:39:34.385Z,100741.46
2019-05-02T14:42:15.277Z,100750.69
2019-05-02T14:45:05.627Z,100747.34
2019-05-02T14:47:35.313Z,100752.22
2019-05-02T14:50:23.447Z,100761.64
2019-05-02T14:52:52.720Z,100760.53
2019-05-02T14:55:32.549Z,100754.90
2019-05-02T14:58:09.902Z,100767.50
2019-05-02T15:00:52.820Z,100767.62
2019-05-02T15:03:32.956Z,100780.09
2019-05-02T15:06:11.680Z,100784.70
2019-05-02T15:08:52.563Z,100781.91
2019-05-02T15:11:34.825Z,100788.24
2019-05-02T15:14:18.364Z,100789.52
2019-05-02T15:16:55.244Z,100794.52
2019-05-02T15:19:32.681Z,100792.66
2019-05-02T15:22:09.586Z,100794.65
2019-05-02T15:24:47.073Z,100792.22
2019-05-02T15:27:38.630Z,100789.16
2019-05-02T15:30:07.245Z,100786.18
2019-05-02T15:32:54.616Z,100782.31
2019-05-02T15:35:57.245Z,100787.56
2019-05-02T15:38:37.363Z,100793.55
2019-05-02T15:41:15.490Z,100793.77
2019-05-02T15:43:53.192Z,100793.30
2019-05-02T15:46:31.880Z,100787.93
2019-05-02T15:49:12.198Z,100797.14
2019-05-02T15:51:52.155Z,100790.20
2019-05-02T15:54:29.011Z,100801.70
2019-05-02T15:57:06.377Z,100804.49
2019-05-02T15:59:46.294Z,100799.64
2019-05-02T16:02:26.515Z,100799.64
2019-05-02T16:05:05.442Z,100792.56
2019-05-02T16:07:46.594Z,100794.02
2019-05-02T16:10:22.616Z,100792.73
2019-05-02T16:13:01.279Z,100789.50
2019-05-02T16:15:39.763Z,100788.27
2019-05-02T16:18:17.242Z,100789.61
2019-05-02T16:21:07.006Z,100785.99
2019-05-02T16:23:42.480Z,100783.05
2019-05-02T16:26:20.146Z,100786.67
2019-05-02T16:28:57.460Z,100782.75
2019-05-02T16:31:36.759Z,100784.78
2019-05-02T16:34:15.084Z,100779.84
2019-05-02T16:36:54.334Z,100788.12
2019-05-02T16:39:32.472Z,100787.64
2019-05-02T16:42:12.467Z,100784.88
2019-05-02T16:44:52.301Z,100785.63
2019-05-02T16:47:30.098Z,100777.20
2019-05-02T16:50:08.724Z,100772.61
2019-05-02T16:52:47.434Z,100757.16
2019-05-02T16:55:26.744Z,100754.76
2019-05-02T16:58:06.932Z,100753.90
2019-05-02T17:00:45.537Z,100745.80
2019-05-02T17:03:26.369Z,100746.36
2019-05-02T17:06:02.309Z,100740.25
2019-05-02T17:08:57.460Z,100735.37
2019-05-02T17:11:36.177Z,100742.67
2019-05-02T17:14:14.386Z,100746.56
2019-05-02T17:16:55.892Z,100737.49
2019-05-02T17:19:34.768Z,100736.64
2019-05-02T17:22:12.176Z,100734.99
2019-05-02T17:24:50.244Z,100738.16
2019-05-02T17:27:27.784Z,100742.34
2019-05-02T17:30:05.619Z,100732.20
2019-05-02T17:32:43.340Z,100726.05
2019-05-02T17:35:22.081Z,100717.70
2019-05-02T17:38:00.066Z,100715.17
2019-05-02T17:40:37.728Z,100716.14
2019-05-02T17:43:15.215Z,100718.55
2019-05-02T17:45:53.887Z,100715.95
2019-05-02T17:48:34.227Z,100715.20
2019-05-02T17:51:33.996Z,100715.13
2019-05-02T17:54:12.048Z,100722.66
2019-05-02T17:56:52.233Z,100716.70
2019-05-02T17:59:36.043Z,100711.02
2019-05-02T18:02:12.482Z,100714.20
2019-05-02T18:04:52.037Z,100712.15
2019-05-02T18:07:32.125Z,100709.69
2019-05-02T18:10:16.666Z,100706.44
2019-05-02T18:12:55.856Z,100689.08
2019-05-02T18:15:29.930Z,100684.87
2019-05-02T18:18:08.010Z,100683.20
2019-05-02T18:20:46.681Z,100684.20
2019-05-02T18:23:27.616Z,100693.07
2019-05-02T18:26:06.208Z,100685.02
2019-05-02T18:28:48.984Z,100695.05
2019-05-02T18:31:22.776Z,100688.67
2019-05-02T18:34:01.741Z,100691.27
2019-05-02T18:36:41.633Z,100685.17
2019-05-02T18:39:19.271Z,100678.42
2019-05-02T18:41:56.901Z,100673.10
2019-05-02T18:44:34.475Z,100669.74
2019-05-02T18:47:19.648Z,100665.13
2019-05-02T18:49:53.814Z,100662.38
2019-05-02T18:52:38.401Z,100647.39
2019-05-02T18:55:11.628Z,100650.48
2019-05-02T18:57:48.884Z,100648.45
2019-05-02T19:00:35.172Z,100652.23
2019-05-02T19:03:07.436Z,100652.20
2019-05-02T19:05:46.720Z,100662.05
2019-05-02T19:08:46.617Z,100663.59
2019-05-02T19:11:26.775Z,100661.95
2019-05-02T19:14:02.727Z,100658.09
2019-05-02T19:16:42.657Z,100647.88
2019-05-02T19:19:20.065Z,100646.48
2019-05-02T19:21:58.540Z,100643.20
2019-05-02T19:24:37.501Z,100643.55
2019-05-02T19:27:21.001Z,100639.81
2019-05-02T19:29:56.572Z,100629.23
2019-05-02T19:32:34.699Z,100620.30
2019-05-02T19:35:12.027Z,100622.66
2019-05-02T19:37:49.382Z,100620.17
2019-05-02T19:40:28.493Z,100617.88
2019-05-02T19:43:07.824Z,100613.26
2019-05-02T19:45:50.286Z,100611.55
2019-05-02T19:48:27.399Z,100613.68
2019-05-02T19:51:04.212Z,100605.63
2019-05-02T19:53:42.963Z,100594.77
2019-05-02T19:56:21.941Z,100591.78
2019-05-02T19:58:59.392Z,100593.67
2019-05-02T20:01:36.871Z,100595.09
2019-05-02T20:04:14.774Z,100601.84
2019-05-02T20:06:52.174Z,100604.92
2019-05-02T20:09:31.458Z,100606.05
2019-05-02T20:12:13.408Z,100608.72
2019-05-02T20:14:48.911Z,100604.33
2019-05-02T20:17:26.717Z,100606.41
2019-05-02T20:20:07.289Z,100606.53
2019-05-02T20:22:44.617Z,100610.95
2019-05-02T20:25:22.838Z,100610.78
2019-05-02T20:28:01.975Z,100611.74
2019-05-02T20:30:39.487Z,100612.04
2019-05-02T20:33:17.092Z,100607.65
2019-05-02T20:35:55.520Z,100610.77
2019-05-02T20:38:33.295Z,100619.64
2019-05-02T20:41:12.556Z,100627.65
2019-05-02T20:43:51.701Z,100630.55
2019-05-02T20:46:29.194Z,100628.98
2019-05-02T20:49:07.579Z,100631.97
2019-05-02T20:51:46.404Z,100635.31
2019-05-02T20:54:27.320Z,100650.35
2019-05-02T20:57:05.467Z,100657.45
2019-05-02T20:59:43.858Z,100665.41
2019-05-02T21:02:21.858Z,100666.86
2019-05-02T21:04:58.602Z,100669.60
2019-05-02T21:07:55.948Z,100665.54
2019-05-02T21:10:36.759Z,100665.78
2019-05-02T21:13:14.440Z,100661.94
2019-05-02T21:15:52.463Z,100667.67
2019-05-02T21:18:32.903Z,100669.27
2019-05-02T21:21:12.606Z,100666.06
2019-05-02T21:23:49.974Z,100672.28
2019-05-02T21:26:27.025Z,100673.67
2019-05-02T21:29:06.834Z,100677.75
2019-05-02T21:31:46.559Z,100672.09
2019-05-02T21:34:24.694Z,100674.44
2019-05-02T21:37:02.557Z,100671.36
2019-05-02T21:39:42.541Z,100673.31
2019-05-02T21:42:20.029Z,100677.52
2019-05-02T21:44:57.573Z,100679.95
2019-05-02T21:47:35.157Z,100685.72
2019-05-02T21:50:25.716Z,100687.83
2019-05-02T21:53:22.197Z,100692.87
2019-05-02T21:56:05.142Z,100692.13
2019-05-02T21:58:44.816Z,100696.78
2019-05-02T22:01:23.051Z,100700.64
2019-05-02T22:04:02.279Z,100701.73
2019-05-02T22:06:42.769Z,100702.95
2019-05-02T22:09:20.324Z,100707.45
2019-05-02T22:11:58.346Z,100705.55
2019-05-02T22:14:35.880Z,100715.44
2019-05-02T22:17:13.712Z,100728.23
2019-05-02T22:19:52.432Z,100729.74
2019-05-02T22:22:31.770Z,100736.79
2019-05-02T22:25:11.599Z,100738.11
2019-05-02T22:27:48.924Z,100737.03
2019-05-02T22:30:26.308Z,100742.03
2019-05-02T22:33:04.047Z,100743.66
2019-05-02T22:35:43.355Z,100738.39
2019-05-02T22:38:46.443Z,100750.13
2019-05-02T22:41:23.029Z,100742.48
2019-05-02T22:44:01.865Z,100735.71
2019-05-02T22:46:43.872Z,100739.53
2019-05-02T22:49:22.484Z,100732.50
2019-05-02T22:52:00.301Z,100732.39
2019-05-02T22:54:41.554Z,100733.69
2019-05-02T22:57:19.662Z,100741.66
2019-05-02T22:59:57.160Z,100752.34
2019-05-02T23:02:34.278Z,100759.09
2019-05-02T23:05:12.450Z,100764.74
2019-05-02T23:07:52.654Z,100761.72
2019-05-02T23:10:30.338Z,100777.92
2019-05-02T23:13:08.221Z,100780.78
2019-05-02T23:15:46.034Z,100783.66
2019-05-02T23:18:23.666Z,100786.34
2019-05-02T23:21:02.159Z,100796.58
2019-05-02T23:23:39.326Z,100803.90
2019-05-02T23:26:35.406Z,100815.91
2019-05-02T23:29:13.824Z,100813.88
2019-05-02T23:31:51.750Z,100821.76
2019-05-02T23:34:28.970Z,100817.64
2019-05-02T23:37:06.678Z,100817.98
2019-05-02T23:39:45.094Z,100819.95
2019-05-02T23:42:23.466Z,100824.28
2019-05-02T23:45:02.674Z,100825.41
2019-05-02T23:47:42.049Z,100825.58
2019-05-02T23:50:19.732Z,100836.56
2019-05-02T23:52:57.332Z,100834.33
2019-05-02T23:55:34.513Z,100845.91
2019-05-02T23:58:12.670Z,100852.83
